地図

経路データ

SID SEASON NUMBER BASIN SUBBASIN NAME ISO_TIME NATURE LAT LON WMO_WIND WMO_PRES WMO_AGENCY TRACK_TYPE DIST2LAND LANDFALL IFLAG USA_AGENCY USA_ATCF_ID USA_LAT USA_LON USA_RECORD USA_STATUS USA_WIND USA_PRES USA_SSHS USA_R34_NE USA_R34_SE USA_R34_SW USA_R34_NW USA_R50_NE USA_R50_SE USA_R50_SW USA_R50_NW USA_R64_NE USA_R64_SE USA_R64_SW USA_R64_NW USA_POCI USA_ROCI USA_RMW USA_EYE TOKYO_LAT TOKYO_LON TOKYO_GRADE TOKYO_WIND TOKYO_PRES TOKYO_R50_DIR TOKYO_R50_LONG TOKYO_R50_SHORT TOKYO_R30_DIR TOKYO_R30_LONG TOKYO_R30_SHORT TOKYO_LAND CMA_LAT CMA_LON CMA_CAT CMA_WIND CMA_PRES HKO_LAT HKO_LON HKO_CAT HKO_WIND HKO_PRES NEWDELHI_LAT NEWDELHI_LON NEWDELHI_GRADE NEWDELHI_WIND NEWDELHI_PRES NEWDELHI_CI NEWDELHI_DP NEWDELHI_POCI REUNION_LAT REUNION_LON REUNION_TYPE REUNION_WIND REUNION_PRES REUNION_TNUM REUNION_CI REUNION_RMW REUNION_R34_NE REUNION_R34_SE REUNION_R34_SW REUNION_R34_NW REUNION_R50_NE REUNION_R50_SE REUNION_R50_SW REUNION_R50_NW REUNION_R64_NE REUNION_R64_SE REUNION_R64_SW REUNION_R64_NW BOM_LAT BOM_LON BOM_TYPE BOM_WIND BOM_PRES BOM_TNUM BOM_CI BOM_RMW BOM_R34_NE BOM_R34_SE BOM_R34_SW BOM_R34_NW BOM_R50_NE BOM_R50_SE BOM_R50_SW BOM_R50_NW BOM_R64_NE BOM_R64_SE BOM_R64_SW BOM_R64_NW BOM_ROCI BOM_POCI BOM_EYE BOM_POS_METHOD BOM_PRES_METHOD NADI_LAT NADI_LON NADI_CAT NADI_WIND NADI_PRES WELLINGTON_LAT WELLINGTON_LON WELLINGTON_WIND WELLINGTON_PRES DS824_LAT DS824_LON DS824_STAGE DS824_WIND DS824_PRES TD9636_LAT TD9636_LON TD9636_STAGE TD9636_WIND TD9636_PRES TD9635_LAT TD9635_LON TD9635_WIND TD9635_PRES TD9635_ROCI NEUMANN_LAT NEUMANN_LON NEUMANN_CLASS NEUMANN_WIND NEUMANN_PRES MLC_LAT MLC_LON MLC_CLASS MLC_WIND MLC_PRES USA_GUST BOM_GUST BOM_GUST_PER REUNION_GUST REUNION_GUST_PER USA_SEAHGT USA_SEARAD_NE USA_SEARAD_SE USA_SEARAD_SW USA_SEARAD_NW STORM_SPEED STORM_DIR
1906281N11284 1906 44 NA CS NOT_NAMED 1906-10-08 06:00:00 TS 11.3000 -76.4000 35 hurdat_atl main 125 125 O_____________ hurdat_atl AL081906 11.3000 -76.4000 TS 35 0 9 270
1906281N11284 1906 44 NA CS NOT_NAMED 1906-10-08 09:00:00 TS 11.3001 -76.8400 main 162 162 P_____________ AL081906 11.3001 -76.8400 TS 35 0 9 270
1906281N11284 1906 44 NA CS NOT_NAMED 1906-10-08 12:00:00 TS 11.3000 -77.3000 35 hurdat_atl main 211 211 O_____________ hurdat_atl AL081906 11.3000 -77.3000 TS 35 0 9 270
1906281N11284 1906 44 NA CS NOT_NAMED 1906-10-08 15:00:00 TS 11.3000 -77.7925 main 230 219 P_____________ AL081906 11.3000 -77.7925 TS 42 0 10 270
1906281N11284 1906 44 NA CS NOT_NAMED 1906-10-08 18:00:00 TS 11.3000 -78.3000 50 hurdat_atl main 219 204 O_____________ hurdat_atl AL081906 11.3000 -78.3000 TS 50 0 10 270
1906281N11284 1906 44 NA CS NOT_NAMED 1906-10-08 21:00:00 TS 11.2999 -78.7925 main 204 201 P_____________ AL081906 11.2999 -78.7925 TS 57 0 10 270
1906281N11284 1906 44 NA CS NOT_NAMED 1906-10-09 00:00:00 TS 11.3000 -79.3000 65 hurdat_atl main 201 201 O_____________ hurdat_atl AL081906 11.3000 -79.3000 HU 65 1 10 269
1906281N11284 1906 44 NA CS NOT_NAMED 1906-10-09 03:00:00 TS 11.2849 -79.8426 main 201 201 P_____________ AL081906 11.2849 -79.8426 HU 70 1 11 270
1906281N11284 1906 44 NA CS NOT_NAMED 1906-10-09 06:00:00 TS 11.3000 -80.4000 75 hurdat_atl main 215 215 O_____________ hurdat_atl AL081906 11.3000 -80.4000 HU 75 1 11 275
1906281N11284 1906 44 NA CS NOT_NAMED 1906-10-09 09:00:00 TS 11.3850 -80.9649 main 255 229 P_____________ AL081906 11.3850 -80.9649 HU 80 1 11 281
1906281N11284 1906 44 NA CS NOT_NAMED 1906-10-09 12:00:00 TS 11.5000 -81.5000 85 hurdat_atl main 229 174 O_____________ hurdat_atl AL081906 11.5000 -81.5000 HU 85 2 10 281
1906281N11284 1906 44 NA CS NOT_NAMED 1906-10-09 15:00:00 TS 11.5849 -81.9801 main 174 131 P_____________ AL081906 11.5849 -81.9801 HU 90 2 9 283
1906281N11284 1906 44 NA CS NOT_NAMED 1906-10-09 18:00:00 TS 11.7000 -82.4000 95 hurdat_atl main 131 100 O_____________ hurdat_atl AL081906 11.7000 -82.4000 HU 95 2 8 291
1906281N11284 1906 44 NA CS NOT_NAMED 1906-10-09 21:00:00 TS 11.8774 -82.7576 main 93 54 P_____________ AL081906 11.8774 -82.7576 HU 100 3 8 300
1906281N11284 1906 44 NA CS NOT_NAMED 1906-10-10 00:00:00 TS 12.1000 -83.1000 105 hurdat_atl main 54 11 O_____________ hurdat_atl AL081906 12.1000 -83.1000 HU 105 3 9 303
1906281N11284 1906 44 NA CS NOT_NAMED 1906-10-10 03:00:00 TS 12.3500 -83.5000 main 0 0 P_____________ AL081906 12.3500 -83.5000 HU 92 2 9 303
1906281N11284 1906 44 NA NA NOT_NAMED 1906-10-10 06:00:00 TS 12.6000 -83.9000 80 hurdat_atl main 0 0 O_____________ hurdat_atl AL081906 12.6000 -83.9000 HU 80 1 9 302
1906281N11284 1906 44 NA NA NOT_NAMED 1906-10-10 09:00:00 TS 12.8225 -84.2725 main 0 0 P_____________ AL081906 12.8225 -84.2725 HU 75 1 8 300
1906281N11284 1906 44 NA NA NOT_NAMED 1906-10-10 12:00:00 TS 13.0000 -84.6000 70 hurdat_atl main 0 0 O_____________ hurdat_atl AL081906 13.0000 -84.6000 HU 70 1 7 297
1906281N11284 1906 44 NA NA NOT_NAMED 1906-10-10 15:00:00 TS 13.1149 -84.8726 main 0 0 P_____________ AL081906 13.1149 -84.8726 HU 67 1 5 292
1906281N11284 1906 44 NA NA NOT_NAMED 1906-10-10 18:00:00 TS 13.2000 -85.1000 65 hurdat_atl main 0 0 O_____________ hurdat_atl AL081906 13.2000 -85.1000 HU 65 1 5 293
1906281N11284 1906 44 NA NA NOT_NAMED 1906-10-10 21:00:00 TS 13.2925 -85.3075 main 0 0 P_____________ AL081906 13.2925 -85.3075 HU 62 0 4 297
1906281N11284 1906 44 NA NA NOT_NAMED 1906-10-11 00:00:00 TS 13.4000 -85.5000 60 hurdat_atl main 0 0 O_____________ hurdat_atl AL081906 13.4000 -85.5000 TS 60 0 5 303
1906281N11284 1906 44 NA NA NOT_NAMED 1906-10-11 03:00:00 TS 13.5425 -85.7000 main 0 0 P_____________ AL081906 13.5425 -85.7000 TS 57 0 5 308
1906281N11284 1906 44 NA NA NOT_NAMED 1906-10-11 06:00:00 TS 13.7000 -85.9000 55 hurdat_atl main 0 0 O_____________ hurdat_atl AL081906 13.7000 -85.9000 TS 55 0 5 308
1906281N11284 1906 44 NA NA NOT_NAMED 1906-10-11 09:00:00 TS 13.8425 -86.1001 main 0 0 P_____________ AL081906 13.8425 -86.1001 TS 52 0 5 308
1906281N11284 1906 44 NA NA NOT_NAMED 1906-10-11 12:00:00 TS 14.0000 -86.3000 50 hurdat_atl main 0 0 O_____________ hurdat_atl AL081906 14.0000 -86.3000 TS 50 0 5 311
1906281N11284 1906 44 NA NA NOT_NAMED 1906-10-11 15:00:00 TS 14.2000 -86.5150 main 0 0 P_____________ AL081906 14.2000 -86.5150 TS 47 0 6 316
1906281N11284 1906 44 NA NA NOT_NAMED 1906-10-11 18:00:00 TS 14.4000 -86.7000 45 hurdat_atl main 0 0 O_____________ hurdat_atl AL081906 14.4000 -86.7000 TS 45 0 5 320
1906281N11284 1906 44 NA NA NOT_NAMED 1906-10-11 21:00:00 TS 14.5500 -86.8151 main 0 0 P_____________ AL081906 14.5500 -86.8151 TS 42 0 4 327
1906281N11284 1906 44 NA NA NOT_NAMED 1906-10-12 00:00:00 TS 14.7000 -86.9000 40 hurdat_atl main 0 0 O_____________ hurdat_atl AL081906 14.7000 -86.9000 TS 40 0 4 333
1906281N11284 1906 44 NA NA NOT_NAMED 1906-10-12 03:00:00 TS 14.8925 -87.0000 main 0 0 P_____________ AL081906 14.8925 -87.0000 TS 40 0 4 334
1906281N11284 1906 44 NA NA NOT_NAMED 1906-10-12 06:00:00 TS 15.1000 -87.1000 40 hurdat_atl main 0 0 O_____________ hurdat_atl AL081906 15.1000 -87.1000 TS 40 0 5 334
1906281N11284 1906 44 NA NA NOT_NAMED 1906-10-12 09:00:00 TS 15.3075 -87.2075 main 0 0 P_____________ AL081906 15.3075 -87.2075 TS 45 0 4 334
1906281N11284 1906 44 NA NA NOT_NAMED 1906-10-12 12:00:00 TS 15.5000 -87.3000 50 hurdat_atl main 0 0 O_____________ hurdat_atl AL081906 15.5000 -87.3000 TS 50 0 4 339
1906281N11284 1906 44 NA NA NOT_NAMED 1906-10-12 15:00:00 TS 15.6575 -87.3501 main 0 0 P_____________ AL081906 15.6575 -87.3501 TS 57 0 3 343
1906281N11284 1906 44 NA CS NOT_NAMED 1906-10-12 18:00:00 TS 15.8000 -87.4000 65 hurdat_atl main 0 0 O_____________ hurdat_atl AL081906 15.8000 -87.4000 HU 65 1 3 335
1906281N11284 1906 44 NA CS NOT_NAMED 1906-10-12 21:00:00 TS 15.9500 -87.4925 main 22 22 P_____________ AL081906 15.9500 -87.4925 HU 65 1 4 327
1906281N11284 1906 44 NA CS NOT_NAMED 1906-10-13 00:00:00 TS 16.1000 -87.6000 65 hurdat_atl main 33 33 O_____________ hurdat_atl AL081906 16.1000 -87.6000 HU 65 1 4 327
1906281N11284 1906 44 NA CS NOT_NAMED 1906-10-13 03:00:00 TS 16.2500 -87.7000 main 55 44 P_____________ AL081906 16.2500 -87.7000 HU 67 1 4 327
1906281N11284 1906 44 NA CS NOT_NAMED 1906-10-13 06:00:00 TS 16.4000 -87.8000 70 hurdat_atl main 64 53 O_____________ hurdat_atl AL081906 16.4000 -87.8000 HU 70 1 4 327
1906281N11284 1906 44 NA CS NOT_NAMED 1906-10-13 09:00:00 TS 16.5575 -87.9075 main 48 33 P_____________ AL081906 16.5575 -87.9075 HU 72 1 4 328
1906281N11284 1906 44 NA CS NOT_NAMED 1906-10-13 12:00:00 TS 16.7000 -88.0000 75 hurdat_atl main 33 21 O_____________ hurdat_atl AL081906 16.7000 -88.0000 HU 75 1 3 330
1906281N11284 1906 44 NA CS NOT_NAMED 1906-10-13 15:00:00 TS 16.8075 -88.0575 main 21 15 P_____________ AL081906 16.8075 -88.0575 HU 77 1 2 333
1906281N11284 1906 44 NA CS NOT_NAMED 1906-10-13 18:00:00 TS 16.9000 -88.1000 80 hurdat_atl main 15 10 O_____________ hurdat_atl AL081906 16.9000 -88.1000 HU 80 1 2 334
1906281N11284 1906 44 NA CS NOT_NAMED 1906-10-13 21:00:00 TS 16.9925 -88.1500 main 0 0 P_____________ AL081906 16.9925 -88.1500 HU 75 1 2 333
1906281N11284 1906 44 NA CS NOT_NAMED 1906-10-14 00:00:00 TS 17.1000 -88.2000 70 hurdat_atl main 10 0 O_____________ hurdat_atl AL081906 17.1000 -88.2000 HU 70 1 3 337
1906281N11284 1906 44 NA CS NOT_NAMED 1906-10-14 03:00:00 TS 17.2425 -88.2575 main 0 0 P_____________ AL081906 17.2425 -88.2575 HU 67 1 3 343
1906281N11284 1906 44 NA CS NOT_NAMED 1906-10-14 06:00:00 TS 17.4000 -88.3000 65 hurdat_atl main 0 0 O_____________ hurdat_atl AL081906 17.4000 -88.3000 HU 65 1 3 354
1906281N11284 1906 44 NA CS NOT_NAMED 1906-10-14 09:00:00 TS 17.5575 -88.3075 main 0 0 P_____________ AL081906 17.5575 -88.3075 HU 62 0 3 0
1906281N11284 1906 44 NA CS NOT_NAMED 1906-10-14 12:00:00 TS 17.7000 -88.3000 60 hurdat_atl main 0 0 O_____________ hurdat_atl AL081906 17.7000 -88.3000 TS 60 0 3 2
1906281N11284 1906 44 NA NA NOT_NAMED 1906-10-14 15:00:00 TS 17.8075 -88.3075 main 0 0 P_____________ AL081906 17.8075 -88.3075 TS 57 0 2 8
1906281N11284 1906 44 NA NA NOT_NAMED 1906-10-14 18:00:00 TS 17.9000 -88.3000 55 hurdat_atl main 0 0 O_____________ hurdat_atl AL081906 17.9000 -88.3000 TS 55 0 2 13
1906281N11284 1906 44 NA NA NOT_NAMED 1906-10-14 21:00:00 TS 18.0000 -88.2575 main 0 0 P_____________ AL081906 18.0000 -88.2575 TS 52 0 2 27
1906281N11284 1906 44 NA NA NOT_NAMED 1906-10-15 00:00:00 TS 18.1000 -88.2000 50 hurdat_atl main 0 0 O_____________ hurdat_atl AL081906 18.1000 -88.2000 TS 50 0 2 28
1906281N11284 1906 44 NA NA NOT_NAMED 1906-10-15 03:00:00 TS 18.2000 -88.1500 main 0 0 P_____________ AL081906 18.2000 -88.1500 TS 50 0 2 27
1906281N11284 1906 44 NA CS NOT_NAMED 1906-10-15 06:00:00 TS 18.3000 -88.1000 50 hurdat_atl main 0 0 O_____________ hurdat_atl AL081906 18.3000 -88.1000 TS 50 0 2 25
1906281N11284 1906 44 NA CS NOT_NAMED 1906-10-15 09:00:00 TS 18.3925 -88.0575 main 11 0 P_____________ AL081906 18.3925 -88.0575 TS 50 0 2 27
1906281N11284 1906 44 NA CS NOT_NAMED 1906-10-15 12:00:00 TS 18.5000 -88.0000 50 hurdat_atl main 0 0 O_____________ hurdat_atl AL081906 18.5000 -88.0000 TS 50 0 3 30
1906281N11284 1906 44 NA NA NOT_NAMED 1906-10-15 15:00:00 TS 18.6425 -87.9075 main 0 0 P_____________ AL081906 18.6425 -87.9075 TS 50 0 4 32
1906281N11284 1906 44 NA NA NOT_NAMED 1906-10-15 18:00:00 TS 18.8000 -87.8000 50 hurdat_atl main 0 0 O_____________ hurdat_atl AL081906 18.8000 -87.8000 TS 50 0 4 31
1906281N11284 1906 44 NA NA NOT_NAMED 1906-10-15 21:00:00 TS 18.9575 -87.7075 main 0 0 P_____________ AL081906 18.9575 -87.7075 TS 50 0 4 32
1906281N11284 1906 44 NA CS NOT_NAMED 1906-10-16 00:00:00 TS 19.1000 -87.6000 50 hurdat_atl main 0 0 O_____________ hurdat_atl AL081906 19.1000 -87.6000 TS 50 0 3 44
1906281N11284 1906 44 NA CS NOT_NAMED 1906-10-16 03:00:00 TS 19.2075 -87.4575 main 0 0 P_____________ AL081906 19.2075 -87.4575 TS 55 0 3 55
1906281N11284 1906 44 NA CS NOT_NAMED 1906-10-16 06:00:00 TS 19.3000 -87.3000 60 hurdat_atl main 23 23 O_____________ hurdat_atl AL081906 19.3000 -87.3000 TS 60 0 3 55
1906281N11284 1906 44 NA CS NOT_NAMED 1906-10-16 09:00:00 TS 19.3924 -87.1799 main 23 23 P_____________ AL081906 19.3924 -87.1799 TS 65 1 3 55
1906281N11284 1906 44 NA CS NOT_NAMED 1906-10-16 12:00:00 TS 19.5000 -87.0000 70 hurdat_atl main 41 41 O_____________ hurdat_atl AL081906 19.5000 -87.0000 HU 70 1 5 62
1906281N11284 1906 44 NA CS NOT_NAMED 1906-10-16 15:00:00 TS 19.6501 -86.6726 main 76 76 P_____________ AL081906 19.6501 -86.6726 HU 75 1 7 66
1906281N11284 1906 44 NA CS NOT_NAMED 1906-10-16 18:00:00 TS 19.8000 -86.3000 80 hurdat_atl main 119 119 O_____________ hurdat_atl AL081906 19.8000 -86.3000 HU 80 1 7 69
1906281N11284 1906 44 NA CS NOT_NAMED 1906-10-16 21:00:00 TS 19.8999 -85.9924 main 137 137 P_____________ AL081906 19.8999 -85.9924 HU 85 2 6 70
1906281N11284 1906 44 NA CS NOT_NAMED 1906-10-17 00:00:00 TS 20.0000 -85.7000 90 hurdat_atl main 153 153 O_____________ hurdat_atl AL081906 20.0000 -85.7000 HU 90 2 6 66
1906281N11284 1906 44 NA CS NOT_NAMED 1906-10-17 03:00:00 TS 20.1347 -85.4373 main 174 168 P_____________ AL081906 20.1347 -85.4373 HU 95 2 6 62
1906281N11284 1906 44 NA CS NOT_NAMED 1906-10-17 06:00:00 TS 20.3000 -85.1000 100 hurdat_atl main 170 145 O_____________ hurdat_atl AL081906 20.3000 -85.1000 HU 100 3 9 67
1906281N11284 1906 44 NA CS NOT_NAMED 1906-10-17 09:00:00 TS 20.4625 -84.6021 main 145 129 P_____________ AL081906 20.4625 -84.6021 HU 102 3 11 69
1906281N11284 1906 44 NA CS NOT_NAMED 1906-10-17 12:00:00 TS 20.7000 -84.0000 105 hurdat_atl main 133 63 O_____________ hurdat_atl AL081906 20.7000 -84.0000 HU 105 3 13 64
1906281N11284 1906 44 NA CS NOT_NAMED 1906-10-17 15:00:00 TS 21.0479 -83.3129 main 63 0 P_____________ AL081906 21.0479 -83.3129 HU 105 3 15 57
1906281N11284 1906 44 NA CS NOT_NAMED 1906-10-17 18:00:00 TS 21.5000 -82.7000 105 hurdat_atl main 0 0 O_____________ hurdat_atl AL081906 21.5000 -82.7000 HU 105 3 13 43
1906281N11284 1906 44 NA CS NOT_NAMED 1906-10-17 21:00:00 TS 22.0121 -82.3394 main 45 0 P_____________ AL081906 22.0121 -82.3394 HU 105 3 12 27
1906281N11284 1906 44 NA CS NOT_NAMED 1906-10-18 00:00:00 TS 22.6000 -82.1000 105 hurdat_atl main 11 0 O_____________ hurdat_atl AL081906 22.6000 -82.1000 HU 105 3 13 20
1906281N11284 1906 44 NA NA NOT_NAMED 1906-10-18 03:00:00 TS 23.2448 -81.8653 main 11 11 P_____________ AL081906 23.2448 -81.8653 HU 105 3 14 20
1906281N11284 1906 44 NA NA NOT_NAMED 1906-10-18 06:00:00 TS 23.9000 -81.6000 105 hurdat_atl main 89 80 O_____________ hurdat_atl AL081906 23.9000 -81.6000 HU 105 3 13 24
1906281N11284 1906 44 NA NA NOT_NAMED 1906-10-18 09:00:00 TS 24.4615 -81.2592 main 70 44 P_____________ AL081906 24.4615 -81.2592 HU 105 3 14 30
1906281N11284 1906 44 NA NA NOT_NAMED 1906-10-18 10:00:00 TS 24.7000 -81.1000 105 hurdat_atl main 44 0 O_____________ hurdat_atl AL081906 24.7000 -81.1000 L HU 105 3 20 31
1906281N11284 1906 44 NA NA NOT_NAMED 1906-10-18 12:00:00 TS 25.3000 -80.7000 105 953 hurdat_atl main 0 0 O_____________ hurdat_atl AL081906 25.3000 -80.7000 L HU 105 953 3 19 35
1906281N11284 1906 44 NA NA NOT_NAMED 1906-10-18 15:00:00 TS 26.0082 -80.0800 main 0 0 P_____________ AL081906 26.0082 -80.0800 HU 100 3 17 40
1906281N11284 1906 44 NA NA NOT_NAMED 1906-10-18 18:00:00 TS 26.6000 -79.5000 95 hurdat_atl main 54 54 O_____________ hurdat_atl AL081906 26.6000 -79.5000 HU 95 2 16 38
1906281N11284 1906 44 NA NA NOT_NAMED 1906-10-18 21:00:00 TS 27.2648 -78.9973 main 113 113 P_____________ AL081906 27.2648 -78.9973 HU 92 2 15 32
1906281N11284 1906 44 NA NA NOT_NAMED 1906-10-19 00:00:00 TS 27.9000 -78.6000 90 hurdat_atl main 175 175 O_____________ hurdat_atl AL081906 27.9000 -78.6000 HU 90 2 14 27
1906281N11284 1906 44 NA NA NOT_NAMED 1906-10-19 03:00:00 TS 28.4723 -78.2896 main 214 214 P_____________ AL081906 28.4723 -78.2896 HU 87 2 12 22
1906281N11284 1906 44 NA NA NOT_NAMED 1906-10-19 06:00:00 TS 29.0000 -78.1000 85 hurdat_atl main 240 240 O_____________ hurdat_atl AL081906 29.0000 -78.1000 HU 85 2 11 13
1906281N11284 1906 44 NA NA NOT_NAMED 1906-10-19 09:00:00 TS 29.5449 -78.0121 main 267 267 P_____________ AL081906 29.5449 -78.0121 HU 82 1 10 5
1906281N11284 1906 44 NA NA NOT_NAMED 1906-10-19 12:00:00 TS 30.0000 -78.0000 80 hurdat_atl main 294 294 O_____________ hurdat_atl AL081906 30.0000 -78.0000 HU 80 1 8 0
1906281N11284 1906 44 NA NA NOT_NAMED 1906-10-19 15:00:00 TS 30.2950 -77.9924 main 310 301 P_____________ AL081906 30.2950 -77.9924 HU 80 1 5 2
1906281N11284 1906 44 NA NA NOT_NAMED 1906-10-19 18:00:00 TS 30.5000 -78.0000 80 hurdat_atl main 301 283 O_____________ hurdat_atl AL081906 30.5000 -78.0000 HU 80 1 4 357
1906281N11284 1906 44 NA NA NOT_NAMED 1906-10-19 21:00:00 TS 30.7000 -77.9926 main 283 267 P_____________ AL081906 30.7000 -77.9926 HU 77 1 4 0
1906281N11284 1906 44 NA NA NOT_NAMED 1906-10-20 00:00:00 TS 30.9000 -78.0000 75 hurdat_atl main 267 249 O_____________ hurdat_atl AL081906 30.9000 -78.0000 HU 75 1 5 354
1906281N11284 1906 44 NA NA NOT_NAMED 1906-10-20 03:00:00 TS 31.1575 -78.0350 main 240 216 P_____________ AL081906 31.1575 -78.0350 HU 75 1 5 350
1906281N11284 1906 44 NA NA NOT_NAMED 1906-10-20 06:00:00 TS 31.4000 -78.1000 75 hurdat_atl main 216 207 O_____________ hurdat_atl AL081906 31.4000 -78.1000 HU 75 1 4 349
1906281N11284 1906 44 NA NA NOT_NAMED 1906-10-20 09:00:00 TS 31.5572 -78.1329 main 198 177 P_____________ AL081906 31.5572 -78.1329 HU 72 1 3 330
1906281N11284 1906 44 NA NA NOT_NAMED 1906-10-20 12:00:00 TS 31.7000 -78.3000 70 hurdat_atl main 177 139 O_____________ hurdat_atl AL081906 31.7000 -78.3000 HU 70 1 6 308
1906281N11284 1906 44 NA NA NOT_NAMED 1906-10-20 15:00:00 TS 31.9527 -78.7313 main 129 86 P_____________ AL081906 31.9527 -78.7313 HU 70 1 9 295
1906281N11284 1906 44 NA NA NOT_NAMED 1906-10-20 18:00:00 TS 32.1000 -79.3000 70 hurdat_atl main 86 62 O_____________ hurdat_atl AL081906 32.1000 -79.3000 HU 70 1 10 273
1906281N11284 1906 44 NA NA NOT_NAMED 1906-10-20 21:00:00 TS 32.0051 -79.8653 main 67 52 P_____________ AL081906 32.0051 -79.8653 HU 65 1 10 247
1906281N11284 1906 44 NA NA NOT_NAMED 1906-10-21 00:00:00 TS 31.7000 -80.4000 60 hurdat_atl main 52 43 O_____________ hurdat_atl AL081906 31.7000 -80.4000 TS 60 0 11 230
1906281N11284 1906 44 NA NA NOT_NAMED 1906-10-21 03:00:00 TS 31.2817 -80.8616 main 37 19 P_____________ AL081906 31.2817 -80.8616 TS 55 0 12 214
1906281N11284 1906 44 NA NA NOT_NAMED 1906-10-21 06:00:00 TS 30.7000 -81.2000 50 hurdat_atl main 19 0 O_____________ hurdat_atl AL081906 30.7000 -81.2000 TS 50 0 14 200
1906281N11284 1906 44 NA NA NOT_NAMED 1906-10-21 09:00:00 TS 30.0000 -81.4000 50 hurdat_atl main 0 0 O_____________ hurdat_atl AL081906 30.0000 -81.4000 L TS 50 0 12 192
1906281N11284 1906 44 NA NA NOT_NAMED 1906-10-21 12:00:00 TS 29.5000 -81.5000 40 hurdat_atl main 0 0 O_____________ hurdat_atl AL081906 29.5000 -81.5000 TS 40 0 8 187
1906281N11284 1906 44 NA NA NOT_NAMED 1906-10-21 15:00:00 TS 29.2125 -81.5134 main 0 0 P_____________ AL081906 29.2125 -81.5134 TS 37 0 5 178
1906281N11284 1906 44 NA NA NOT_NAMED 1906-10-21 18:00:00 TS 29.0000 -81.5000 35 hurdat_atl main 0 0 O_____________ hurdat_atl AL081906 29.0000 -81.5000 TS 35 0 5 0
1906281N11284 1906 44 NA NA NOT_NAMED 1906-10-21 21:00:00 TS 28.6875 -81.5425 main 0 0 P_____________ AL081906 28.6875 -81.5425 TS 32 -1 7 187
1906281N11284 1906 44 NA NA NOT_NAMED 1906-10-22 00:00:00 TS 28.3000 -81.6000 30 hurdat_atl main 0 0 O_____________ hurdat_atl AL081906 28.3000 -81.6000 TD 30 -1 9 185
1906281N11284 1906 44 NA NA NOT_NAMED 1906-10-22 03:00:00 TS 27.8450 -81.6347 main 0 0 P_____________ AL081906 27.8450 -81.6347 TD 30 -1 10 185
1906281N11284 1906 44 NA NA NOT_NAMED 1906-10-22 06:00:00 TS 27.3000 -81.7000 30 hurdat_atl main 0 0 O_____________ hurdat_atl AL081906 27.3000 -81.7000 TD 30 -1 12 187
1906281N11284 1906 44 NA NA NOT_NAMED 1906-10-22 09:00:00 TS 26.6573 -81.7971 main 0 0 P_____________ AL081906 26.6573 -81.7971 TD 27 -1 13 192
1906281N11284 1906 44 NA GM NOT_NAMED 1906-10-22 12:00:00 TS 26.0000 -82.0000 25 hurdat_atl main 22 22 O_____________ hurdat_atl AL081906 26.0000 -82.0000 TD 25 -1 13 202
1906281N11284 1906 44 NA GM NOT_NAMED 1906-10-22 15:00:00 TS 25.4200 -82.3476 main 82 82 P_____________ AL081906 25.4200 -82.3476 TD 25 -1 13 213
1906281N11284 1906 44 NA GM NOT_NAMED 1906-10-22 18:00:00 TS 24.9000 -82.8000 25 hurdat_atl main 157 157 O_____________ hurdat_atl AL081906 24.9000 -82.8000 TD 25 -1 13 221
1906281N11284 1906 44 NA GM NOT_NAMED 1906-10-22 21:00:00 TS 24.4350 -83.2847 main 164 126 P_____________ AL081906 24.4350 -83.2847 TD 25 -1 13 225
1906281N11284 1906 44 NA GM NOT_NAMED 1906-10-23 00:00:00 TS 24.0000 -83.8000 25 hurdat_atl main 129 102 O_____________ hurdat_atl AL081906 24.0000 -83.8000 TD 25 -1 13 226
1906281N11284 1906 44 NA GM NOT_NAMED 1906-10-23 03:00:00 TS 23.5424 -84.3073 main 94 83 P_____________ AL081906 23.5424 -84.3073 TD 25 -1 13 226
1906281N11284 1906 44 NA GM NOT_NAMED 1906-10-23 06:00:00 TS 23.1000 -84.8000 25 hurdat_atl main 90 90 O_____________ hurdat_atl AL081906 23.1000 -84.8000 TD 25 -1 12 226
1906281N11284 1906 44 NA GM NOT_NAMED 1906-10-23 09:00:00 TS 22.6923 -85.2571 main 94 78 P_____________ AL081906 22.6923 -85.2571 TD 25 -1 12 226
1906281N11284 1906 44 NA GM NOT_NAMED 1906-10-23 12:00:00 TS 22.3000 -85.7000 25 hurdat_atl main 84 84 O_____________ hurdat_atl AL081906 22.3000 -85.7000 TD 25 -1 11 226
1906281N11284 1906 44 NA GM NOT_NAMED 1906-10-23 15:00:00 TS 21.9028 -86.1481 main 98 30 P_____________ AL081906 21.9028 -86.1481 TD 25 -1 12 226
1906281N11284 1906 44 NA CS NOT_NAMED 1906-10-23 18:00:00 TS 21.5000 -86.6000 25 hurdat_atl main 30 O_____________ hurdat_atl AL081906 21.5000 -86.6000 TD 25 -1 12 226

IBTrACS Databaseについて

本データベースは、米国NOAAが公開する1842年以降の世界の熱帯低気圧のベストトラックデータアーカイブInternational Best Track Archive for Climate Stewardship (IBTrACS)を、ウェブで閲覧しやすい形式に変換したものです。

最終更新日:2021-12-03